createdAt,value
2023-01-04T00:01:16.723Z,81.08
2023-01-04T00:03:48.215Z,81.55
2023-01-04T00:06:17.523Z,80.67
2023-01-04T00:08:47.718Z,80.62
2023-01-04T00:11:21.358Z,81.57
2023-01-04T00:13:56.653Z,80.10
2023-01-04T00:16:26.332Z,80.40
2023-01-04T00:18:55.714Z,80.37
2023-01-04T00:21:29.694Z,78.49
2023-01-04T00:24:00.248Z,80.18
2023-01-04T00:26:33.475Z,80.24
2023-01-04T00:29:03.274Z,80.28
2023-01-04T00:31:35.406Z,80.60
2023-01-04T00:34:05.089Z,80.53
2023-01-04T00:36:36.047Z,80.72
2023-01-04T00:39:10.434Z,81.28
2023-01-04T00:42:00.999Z,81.39
2023-01-04T00:44:29.878Z,82.08
2023-01-04T00:47:05.258Z,82.80
2023-01-04T00:49:33.727Z,83.48
2023-01-04T00:52:01.630Z,84.43
2023-01-04T00:54:32.066Z,85.20
2023-01-04T00:57:03.488Z,85.40
2023-01-04T00:59:33.341Z,85.66
2023-01-04T01:02:03.553Z,85.84
2023-01-04T01:04:32.161Z,85.88
2023-01-04T01:06:59.885Z,85.83
2023-01-04T01:09:27.838Z,85.86
2023-01-04T01:11:58.689Z,85.64
2023-01-04T01:14:29.240Z,86.06
2023-01-04T01:16:59.170Z,86.38
2023-01-04T01:19:30.035Z,86.70
2023-01-04T01:21:58.325Z,86.54
2023-01-04T01:24:27.259Z,86.48
2023-01-04T01:27:00.919Z,86.26
2023-01-04T01:29:31.617Z,86.19
2023-01-04T01:31:59.327Z,86.29
2023-01-04T01:34:31.445Z,85.80
2023-01-04T01:37:00.299Z,85.55
2023-01-04T01:39:28.276Z,85.14
2023-01-04T01:41:56.404Z,84.90
2023-01-04T01:44:42.937Z,85.10
2023-01-04T01:47:17.473Z,85.03
2023-01-04T01:49:48.427Z,85.16
2023-01-04T01:52:23.741Z,85.19
2023-01-04T01:55:00.117Z,84.70
2023-01-04T01:57:31.847Z,84.29
2023-01-04T02:00:03.844Z,84.42
2023-01-04T02:02:32.818Z,83.92
2023-01-04T02:05:02.712Z,83.87
2023-01-04T02:07:31.737Z,83.90
2023-01-04T02:10:02.066Z,83.86
2023-01-04T02:12:33.244Z,83.67
2023-01-04T02:15:01.107Z,83.60
2023-01-04T02:17:54.114Z,84.34
2023-01-04T02:20:39.879Z,84.51
2023-01-04T02:23:45.215Z,84.60
2023-01-04T02:26:46.963Z,84.59
2023-01-04T02:29:24.017Z,84.62
2023-01-04T02:32:10.520Z,84.65
2023-01-04T02:34:44.929Z,84.65
2023-01-04T02:37:41.505Z,84.62
2023-01-04T02:40:22.526Z,84.89
2023-01-04T02:43:30.092Z,85.29
2023-01-04T02:46:25.611Z,85.58
2023-01-04T02:49:14.671Z,86.03
2023-01-04T02:51:44.562Z,86.93
2023-01-04T02:54:16.755Z,87.60
2023-01-04T02:57:06.162Z,87.21
2023-01-04T02:59:47.030Z,87.65
2023-01-04T03:02:54.177Z,88.67
2023-01-04T03:05:55.268Z,88.37
2023-01-04T03:08:22.868Z,89.05
2023-01-04T03:11:47.230Z,89.67
2023-01-04T03:14:31.785Z,89.49
2023-01-04T03:17:06.057Z,89.19
2023-01-04T03:19:55.978Z,89.34
2023-01-04T03:23:16.425Z,89.79
2023-01-04T03:26:16.656Z,89.94
2023-01-04T03:29:03.529Z,89.98
2023-01-04T03:31:59.369Z,90.59
2023-01-04T03:34:47.659Z,90.74
2023-01-04T03:37:46.822Z,90.98
2023-01-04T03:40:34.924Z,91.65
2023-01-04T03:43:43.000Z,91.68
2023-01-04T03:46:57.555Z,92.01
2023-01-04T03:49:42.482Z,92.38
2023-01-04T03:52:13.324Z,91.97
2023-01-04T03:54:46.398Z,92.02
2023-01-04T03:57:15.545Z,91.94
2023-01-04T03:59:49.450Z,92.47
2023-01-04T04:02:19.606Z,92.87
2023-01-04T04:05:05.033Z,93.18
2023-01-04T04:07:52.890Z,93.96
2023-01-04T04:10:22.930Z,94.37
2023-01-04T04:12:52.432Z,94.50
2023-01-04T04:15:20.476Z,94.26
2023-01-04T04:17:48.751Z,94.57
2023-01-04T04:20:18.342Z,95.01
2023-01-04T04:22:46.196Z,95.50
2023-01-04T04:25:13.927Z,95.46
2023-01-04T04:27:41.862Z,95.74
2023-01-04T04:30:13.384Z,96.08
2023-01-04T04:32:41.760Z,96.42
2023-01-04T04:35:10.273Z,97.14
2023-01-04T04:37:38.249Z,97.52
2023-01-04T04:40:08.268Z,97.82
2023-01-04T04:42:37.268Z,97.67
2023-01-04T04:45:08.723Z,98.36
2023-01-04T04:47:36.367Z,97.28
2023-01-04T04:50:04.074Z,97.18
2023-01-04T04:52:33.821Z,96.67
2023-01-04T04:55:01.617Z,96.47
2023-01-04T05:18:25.139Z,96.24
2023-01-04T05:21:03.223Z,96.56
2023-01-04T05:23:45.053Z,96.89
2023-01-04T05:26:22.480Z,97.07
2023-01-04T05:32:15.315Z,97.58
2023-01-04T05:37:54.756Z,97.83
2023-01-04T05:43:14.154Z,98.07
2023-01-04T05:45:55.205Z,98.01
2023-01-04T05:51:21.207Z,98.04
2023-01-04T05:53:57.495Z,98.60
2023-01-04T05:56:30.225Z,98.67
2023-01-04T06:02:11.143Z,98.92
2023-01-04T06:04:46.129Z,99.01
2023-01-04T06:07:19.766Z,99.14
2023-01-04T06:09:52.137Z,99.03
2023-01-04T06:12:25.271Z,99.10
2023-01-04T06:15:07.479Z,99.04
2023-01-04T06:17:52.090Z,99.21
2023-01-04T06:23:09.834Z,99.93
2023-01-04T06:25:38.578Z,100.00
2023-01-04T06:28:13.026Z,100.00
2023-01-04T06:30:42.766Z,100.00
2023-01-04T06:33:11.600Z,100.00
2023-01-04T06:35:39.317Z,100.00
2023-01-04T06:38:12.066Z,100.00
2023-01-04T06:40:39.819Z,100.00
2023-01-04T06:43:09.931Z,100.00
2023-01-04T06:45:39.906Z,100.00
2023-01-04T06:48:09.845Z,100.00
2023-01-04T06:50:37.996Z,100.00
2023-01-04T06:53:09.148Z,100.00
2023-01-04T06:55:37.007Z,100.00
2023-01-04T06:58:10.267Z,100.00
2023-01-04T07:00:38.022Z,100.00
2023-01-04T07:03:14.599Z,100.00
2023-01-04T07:05:44.274Z,100.00
2023-01-04T07:08:12.844Z,100.00
2023-01-04T07:10:40.823Z,100.00
2023-01-04T07:13:12.172Z,100.00
2023-01-04T07:15:42.362Z,98.98
2023-01-04T07:18:10.985Z,98.12
2023-01-04T07:20:39.389Z,97.86
2023-01-04T07:23:09.061Z,97.59
2023-01-04T07:25:37.530Z,97.02
2023-01-04T07:28:10.170Z,96.31
2023-01-04T07:30:38.641Z,96.25
2023-01-04T07:33:06.781Z,95.58
2023-01-04T07:35:35.703Z,94.59
2023-01-04T07:38:04.058Z,93.54
2023-01-04T07:40:31.709Z,91.89
2023-01-04T07:43:00.690Z,90.50
2023-01-04T07:45:28.948Z,88.36
2023-01-04T07:47:56.967Z,85.26
2023-01-04T07:50:24.611Z,83.35
2023-01-04T07:52:54.874Z,82.53
2023-01-04T07:55:24.600Z,80.90
2023-01-04T07:57:54.515Z,79.29
2023-01-04T08:00:22.310Z,79.75
2023-01-04T08:02:53.263Z,79.28
2023-01-04T08:05:24.933Z,78.38
2023-01-04T08:07:56.857Z,77.68
2023-01-04T08:10:25.534Z,76.22
2023-01-04T08:12:55.432Z,77.85
2023-01-04T08:15:29.080Z,76.36
2023-01-04T08:17:57.826Z,76.01
2023-01-04T08:20:26.193Z,74.23
2023-01-04T08:22:55.147Z,71.16
2023-01-04T08:25:22.872Z,70.36
2023-01-04T08:27:54.222Z,67.43
2023-01-04T08:30:23.147Z,65.40
2023-01-04T08:32:50.885Z,62.95
2023-01-04T08:35:18.658Z,62.67
2023-01-04T08:37:50.529Z,61.57
2023-01-04T08:40:19.601Z,61.74
2023-01-04T08:42:47.267Z,60.03
2023-01-04T08:45:17.290Z,59.85
2023-01-04T08:47:45.232Z,58.76
2023-01-04T08:50:14.479Z,58.81
2023-01-04T08:52:42.934Z,57.12
2023-01-04T08:55:16.802Z,58.77
2023-01-04T08:57:46.656Z,58.42
2023-01-04T09:00:19.293Z,57.30
2023-01-04T09:02:47.361Z,56.66
2023-01-04T09:05:22.871Z,58.17
2023-01-04T09:07:51.215Z,58.52
2023-01-04T09:10:21.478Z,56.83
2023-01-04T09:12:50.509Z,57.55
2023-01-04T09:15:21.244Z,56.51
2023-01-04T09:18:29.547Z,58.00
2023-01-04T09:20:42.661Z,58.37
2023-01-04T09:23:11.630Z,58.00
2023-01-04T09:25:44.972Z,57.14
2023-01-04T09:28:12.667Z,52.60
2023-01-04T09:30:40.333Z,54.56
2023-01-04T09:33:08.256Z,55.08
2023-01-04T09:35:36.280Z,52.02
2023-01-04T09:38:04.471Z,53.96
2023-01-04T09:40:44.730Z,56.21
2023-01-04T09:43:22.270Z,55.17
2023-01-04T09:45:55.108Z,53.88
2023-01-04T09:48:29.132Z,53.91
2023-01-04T09:51:09.794Z,53.84
2023-01-04T09:53:53.775Z,52.46
2023-01-04T09:56:38.022Z,52.19
2023-01-04T09:59:15.898Z,50.90
2023-01-04T10:01:51.346Z,49.44
2023-01-04T10:04:29.118Z,50.54
2023-01-04T10:07:04.887Z,50.49
2023-01-04T10:09:34.815Z,51.41
2023-01-04T10:12:22.669Z,52.22
2023-01-04T10:15:31.916Z,52.26
2023-01-04T10:21:34.120Z,58.14
2023-01-04T10:24:39.623Z,58.63
2023-01-04T10:27:16.907Z,60.97
2023-01-04T10:29:59.566Z,62.64
2023-01-04T10:32:46.134Z,63.22
2023-01-04T10:35:26.101Z,63.70
2023-01-04T10:38:04.052Z,62.62
2023-01-04T10:40:39.728Z,62.76
2023-01-04T10:43:17.344Z,62.75
2023-01-04T10:45:55.476Z,63.59
2023-01-04T10:48:39.298Z,64.55
2023-01-04T10:51:10.537Z,65.21
2023-01-04T10:53:50.077Z,65.66
2023-01-04T10:56:35.345Z,65.70
2023-01-04T10:59:14.563Z,66.36
2023-01-04T11:01:53.839Z,66.27
2023-01-04T11:04:30.807Z,66.57
2023-01-04T11:07:11.251Z,67.70
2023-01-04T11:09:50.130Z,66.85
2023-01-04T11:12:22.320Z,66.38
2023-01-04T11:14:55.250Z,66.57
2023-01-04T11:17:30.261Z,67.27
2023-01-04T11:20:00.782Z,65.69
2023-01-04T11:23:00.319Z,65.57
2023-01-04T11:25:39.415Z,65.65
2023-01-04T11:28:37.918Z,65.40
2023-01-04T11:31:26.161Z,65.25
2023-01-04T11:34:05.084Z,64.39
2023-01-04T11:36:40.537Z,64.39
2023-01-04T11:39:20.418Z,63.71
2023-01-04T11:42:06.876Z,63.54
2023-01-04T11:44:36.351Z,63.71
2023-01-04T11:47:20.109Z,63.71
2023-01-04T11:49:49.188Z,63.04
2023-01-04T11:52:40.232Z,62.36
2023-01-04T11:55:29.074Z,61.80
2023-01-04T11:58:14.982Z,62.03
2023-01-04T12:00:58.930Z,61.27
2023-01-04T12:03:40.741Z,61.12
2023-01-04T12:06:40.554Z,61.23
2023-01-04T12:09:15.732Z,59.77
2023-01-04T12:12:00.162Z,59.36
2023-01-04T12:14:36.791Z,57.43
2023-01-04T12:17:13.536Z,56.95
2023-01-04T12:19:49.092Z,57.59
2023-01-04T12:22:36.129Z,56.15
2023-01-04T12:25:34.086Z,56.18
2023-01-04T12:28:02.041Z,54.33
2023-01-04T12:30:47.031Z,53.88
2023-01-04T12:33:33.700Z,53.61
2023-01-04T12:36:07.986Z,52.79
2023-01-04T12:38:58.448Z,52.51
2023-01-04T12:42:03.618Z,52.10
2023-01-04T12:44:38.137Z,50.92
2023-01-04T12:47:46.521Z,51.24
2023-01-04T12:50:27.943Z,51.96
2023-01-04T12:55:54.520Z,55.33
2023-01-04T13:01:26.127Z,55.88
2023-01-04T13:04:05.131Z,55.04
2023-01-04T13:06:43.637Z,53.79
2023-01-04T13:09:24.979Z,53.27
2023-01-04T13:12:10.408Z,52.68
2023-01-04T13:14:47.758Z,52.03
2023-01-04T13:17:26.830Z,50.14
2023-01-04T13:19:57.170Z,50.82
2023-01-04T13:22:35.184Z,50.33
2023-01-04T13:25:05.191Z,49.10
2023-01-04T13:27:34.117Z,50.33
2023-01-04T13:30:08.921Z,50.00
2023-01-04T13:33:15.134Z,49.33
2023-01-04T13:35:30.474Z,48.70
2023-01-04T13:38:06.519Z,48.80
2023-01-04T13:40:42.883Z,50.20
2023-01-04T13:43:52.682Z,52.05
2023-01-04T13:46:28.118Z,54.29
2023-01-04T13:49:01.329Z,57.62
2023-01-04T13:51:38.021Z,59.33
2023-01-04T13:54:22.264Z,60.08
2023-01-04T13:56:55.592Z,63.03
2023-01-04T13:59:26.180Z,64.14
2023-01-04T14:01:57.242Z,68.85
2023-01-04T14:04:31.832Z,68.09
2023-01-04T14:07:02.435Z,70.33
2023-01-04T14:09:33.966Z,68.94
2023-01-04T14:12:09.769Z,70.31
2023-01-04T14:14:46.672Z,70.90
2023-01-04T14:17:17.307Z,71.06
2023-01-04T14:20:02.647Z,71.43
2023-01-04T14:22:42.552Z,72.91
2023-01-04T14:25:35.869Z,74.35
2023-01-04T14:28:27.507Z,73.23
2023-01-04T14:31:06.650Z,74.03
2023-01-04T14:33:40.086Z,79.23
2023-01-04T14:36:09.988Z,76.07
2023-01-04T14:38:38.694Z,80.14
2023-01-04T14:41:32.746Z,79.02
2023-01-04T14:47:07.498Z,81.54
2023-01-04T14:49:35.439Z,82.03
2023-01-04T14:52:09.880Z,84.04
2023-01-04T14:54:40.251Z,84.96
2023-01-04T14:57:21.927Z,85.91
2023-01-04T14:59:50.874Z,88.76
2023-01-04T15:02:19.339Z,87.52
2023-01-04T15:04:55.352Z,84.37
2023-01-04T15:07:35.879Z,88.51
2023-01-04T15:10:05.987Z,90.09
2023-01-04T15:12:35.134Z,89.65
2023-01-04T15:15:05.349Z,91.05
2023-01-04T15:17:35.615Z,91.49
2023-01-04T15:20:03.654Z,91.30
2023-01-04T15:22:31.721Z,91.82
2023-01-04T15:24:59.407Z,92.13
2023-01-04T15:27:32.001Z,91.77
2023-01-04T15:30:03.210Z,92.72
2023-01-04T15:32:35.215Z,93.54
2023-01-04T15:35:16.896Z,93.38
2023-01-04T15:37:51.196Z,92.53
2023-01-04T15:40:23.688Z,95.39
2023-01-04T15:43:05.560Z,95.15
2023-01-04T15:45:48.330Z,97.54
2023-01-04T15:48:21.081Z,96.31
2023-01-04T15:50:49.089Z,94.81
2023-01-04T15:53:17.184Z,96.52
2023-01-04T15:55:48.896Z,97.67
2023-01-04T15:58:20.067Z,97.15
2023-01-04T16:00:56.572Z,97.58
2023-01-04T16:03:29.089Z,99.21
2023-01-04T16:05:58.581Z,99.05
2023-01-04T16:08:28.890Z,100.00
2023-01-04T16:10:59.199Z,100.00
2023-01-04T16:13:29.279Z,99.98
2023-01-04T16:16:01.769Z,100.00
2023-01-04T16:18:32.818Z,100.00
2023-01-04T16:21:03.871Z,100.00
2023-01-04T16:23:31.677Z,100.00
2023-01-04T16:26:12.363Z,100.00
2023-01-04T16:28:40.796Z,100.00
2023-01-04T16:31:12.046Z,100.00
2023-01-04T16:33:39.796Z,100.00
2023-01-04T16:36:14.931Z,100.00
2023-01-04T16:38:46.529Z,100.00
2023-01-04T16:41:17.459Z,100.00
2023-01-04T16:43:49.440Z,100.00
2023-01-04T16:46:24.858Z,100.00
2023-01-04T16:49:00.897Z,100.00
2023-01-04T16:51:31.709Z,100.00
2023-01-04T16:53:59.774Z,100.00
2023-01-04T16:56:28.294Z,100.00
2023-01-04T16:58:56.124Z,100.00
2023-01-04T17:01:29.655Z,100.00
2023-01-04T17:03:59.871Z,100.00
2023-01-04T17:06:30.381Z,100.00
2023-01-04T17:09:03.279Z,100.00
2023-01-04T17:14:21.373Z,100.00
2023-01-04T17:16:49.114Z,100.00
2023-01-04T17:19:23.932Z,100.00
2023-01-04T17:21:52.033Z,100.00
2023-01-04T17:24:22.529Z,100.00
2023-01-04T17:26:52.620Z,100.00
2023-01-04T17:29:20.593Z,100.00
2023-01-04T17:31:50.004Z,100.00
2023-01-04T17:34:22.551Z,100.00
2023-01-04T17:36:53.971Z,100.00
2023-01-04T17:39:21.936Z,100.00
2023-01-04T17:41:51.899Z,100.00
2023-01-04T17:44:19.836Z,100.00
2023-01-04T17:46:47.783Z,100.00
2023-01-04T17:49:25.521Z,100.00
2023-01-04T17:51:58.666Z,100.00
2023-01-04T17:54:33.517Z,100.00
2023-01-04T17:57:01.147Z,100.00
2023-01-04T17:59:29.907Z,100.00
2023-01-04T18:01:57.932Z,100.00
2023-01-04T18:04:27.780Z,100.00
2023-01-04T18:06:55.650Z,100.00
2023-01-04T18:09:27.258Z,100.00
2023-01-04T18:11:54.966Z,100.00
2023-01-04T18:14:22.685Z,100.00
2023-01-04T18:16:59.984Z,100.00
2023-01-04T18:19:34.150Z,100.00
2023-01-04T18:22:02.657Z,100.00
2023-01-04T18:24:36.596Z,100.00
2023-01-04T18:27:23.615Z,100.00
2023-01-04T18:29:53.279Z,100.00
2023-01-04T18:32:21.951Z,100.00
2023-01-04T18:34:52.191Z,100.00
2023-01-04T18:37:20.914Z,100.00
2023-01-04T18:39:49.614Z,100.00
2023-01-04T18:42:19.937Z,100.00
2023-01-04T18:44:50.136Z,100.00
2023-01-04T18:47:23.749Z,100.00
2023-01-04T18:49:53.889Z,100.00
2023-01-04T18:52:24.967Z,100.00
2023-01-04T18:54:52.642Z,100.00
2023-01-04T18:57:24.408Z,100.00
2023-01-04T18:59:55.275Z,100.00
2023-01-04T19:02:23.200Z,100.00
2023-01-04T19:04:55.901Z,100.00
2023-01-04T19:07:27.101Z,100.00
2023-01-04T19:09:54.771Z,100.00
2023-01-04T19:12:22.479Z,100.00
2023-01-04T19:14:54.654Z,100.00
2023-01-04T19:17:26.070Z,100.00
2023-01-04T19:19:55.119Z,100.00
2023-01-04T19:22:22.756Z,100.00
2023-01-04T19:24:50.435Z,100.00
2023-01-04T19:27:19.727Z,100.00
2023-01-04T19:29:47.730Z,100.00
2023-01-04T19:32:19.205Z,100.00
2023-01-04T19:34:49.285Z,100.00
2023-01-04T19:37:18.129Z,100.00
2023-01-04T19:39:45.878Z,100.00
2023-01-04T19:42:13.808Z,100.00
2023-01-04T19:44:41.809Z,100.00
2023-01-04T19:47:11.979Z,100.00
2023-01-04T19:49:39.698Z,100.00
2023-01-04T19:52:07.493Z,99.69
2023-01-04T19:54:35.317Z,99.47
2023-01-04T19:57:03.172Z,99.54
2023-01-04T19:59:31.087Z,99.21
2023-01-04T20:02:01.576Z,98.48
2023-01-04T20:04:31.934Z,98.39
2023-01-04T20:07:00.569Z,98.05
2023-01-04T20:09:32.086Z,98.02
2023-01-04T20:12:00.416Z,98.07
2023-01-04T20:14:30.857Z,98.09
2023-01-04T20:16:58.536Z,98.13
2023-01-04T20:19:30.659Z,98.25
2023-01-04T20:21:58.286Z,98.56
2023-01-04T20:24:27.019Z,98.37
2023-01-04T20:26:57.054Z,98.31
2023-01-04T20:29:27.313Z,98.08
2023-01-04T20:31:55.901Z,97.63
2023-01-04T20:34:23.847Z,97.39
2023-01-04T20:36:51.455Z,97.40
2023-01-04T20:39:19.147Z,97.42
2023-01-04T20:42:00.639Z,98.27
2023-01-04T20:44:30.065Z,98.09
2023-01-04T20:47:01.624Z,98.37
2023-01-04T20:49:31.679Z,98.80
2023-01-04T20:52:02.213Z,98.75
2023-01-04T20:54:29.924Z,98.84
2023-01-04T20:56:57.824Z,98.90
2023-01-04T20:59:27.105Z,98.97
2023-01-04T21:01:55.296Z,99.34
2023-01-04T21:04:25.573Z,99.32
2023-01-04T21:06:53.251Z,99.40
2023-01-04T21:09:21.341Z,99.31
2023-01-04T21:11:49.317Z,99.30
2023-01-04T21:14:16.953Z,98.95
2023-01-04T21:16:45.325Z,98.86
2023-01-04T21:19:15.142Z,98.71
2023-01-04T21:21:42.939Z,98.85
2023-01-04T21:24:15.347Z,99.02
2023-01-04T21:26:42.981Z,99.20
2023-01-04T21:29:11.038Z,99.35
2023-01-04T21:31:39.895Z,99.80
2023-01-04T21:34:13.038Z,99.94
2023-01-04T21:36:42.955Z,100.00
2023-01-04T21:39:13.109Z,100.00
2023-01-04T21:41:47.706Z,100.00
2023-01-04T21:44:16.774Z,100.00
2023-01-04T21:46:46.085Z,100.00
2023-01-04T21:49:14.265Z,100.00
2023-01-04T21:51:46.818Z,100.00
2023-01-04T21:54:14.714Z,100.00
2023-01-04T21:56:42.438Z,100.00
2023-01-04T21:59:10.138Z,100.00
2023-01-04T22:01:38.149Z,100.00
2023-01-04T22:04:07.702Z,100.00
2023-01-04T22:06:38.690Z,100.00
2023-01-04T22:09:08.031Z,100.00
2023-01-04T22:11:38.114Z,100.00
2023-01-04T22:14:08.678Z,100.00
2023-01-04T22:16:36.658Z,100.00
2023-01-04T22:19:11.080Z,100.00
2023-01-04T22:21:38.722Z,100.00
2023-01-04T22:24:07.063Z,100.00
2023-01-04T22:26:35.345Z,100.00
2023-01-04T22:29:03.024Z,100.00
2023-01-04T22:31:31.032Z,100.00
2023-01-04T22:33:59.003Z,100.00
2023-01-04T22:36:28.796Z,100.00
2023-01-04T22:39:00.542Z,100.00
2023-01-04T22:41:30.010Z,100.00
2023-01-04T22:44:03.531Z,100.00
2023-01-04T22:46:34.425Z,100.00
2023-01-04T22:49:03.176Z,100.00
2023-01-04T22:51:32.379Z,100.00
2023-01-04T22:54:02.489Z,100.00
2023-01-04T22:56:31.474Z,100.00
2023-01-04T22:58:59.798Z,100.00
2023-01-04T23:01:31.768Z,100.00
2023-01-04T23:04:01.478Z,100.00
2023-01-04T23:06:31.723Z,100.00
2023-01-04T23:09:06.647Z,100.00
2023-01-04T23:11:37.826Z,100.00
2023-01-04T23:14:10.133Z,100.00
2023-01-04T23:16:38.051Z,100.00
2023-01-04T23:19:07.267Z,100.00
2023-01-04T23:21:36.528Z,100.00
2023-01-04T23:24:10.397Z,100.00
2023-01-04T23:26:38.046Z,100.00
2023-01-04T23:29:05.720Z,100.00
2023-01-04T23:31:35.260Z,100.00
2023-01-04T23:34:05.315Z,100.00
2023-01-04T23:36:39.274Z,100.00
2023-01-04T23:39:13.040Z,100.00
2023-01-04T23:41:47.162Z,100.00
2023-01-04T23:44:24.572Z,100.00
2023-01-04T23:49:37.243Z,100.00
2023-01-04T23:52:05.829Z,100.00
2023-01-04T23:54:34.884Z,100.00
2023-01-04T23:57:03.807Z,100.00
2023-01-04T23:59:40.845Z,100.00
